Tiempo atmosférico en la estación meteorológica de El Pedregal, Guadalajara (1185 m.)



Fecha
DESCASC
Temp. máxima en grados centígrados (hora)
DESCASC
Temp. mínima en grados centígrados (hora)
DESCASC
Temp. media en grados centígrados
DESCASC
Racha de viento máxima en m/sg (hora)
DESCASC
Velocidad máxima media en intervalos de 10 minutos(hora)
DESCASC
Precipitaciones diarias en mm
DESCASC
Precipitaciones de 00:00 a 06:00 en mm
DESCASC
Precipitaciones de 06:00 a 12:00 en mm
DESCASC
Precipitaciones de 12:00 a 18:00 en mm
DESCASC
Precipitaciones de 18:00 a 24:00 en mm
DESCASC
17-09-2019 -- (--) -- (--) -- -- (--) -- (--) -- 0 0 0 --
06-09-2019 22.5 (18:00) 3 (00:00) 12.8 7.5 (19:40) 5 (19:50) 0 0 0 0 0
07-09-2019 24.5 (17:10) 5.7 (00:00) 15.1 7.22 (19:00) 4.44 (19:00) 0 0 0 0 0
08-09-2019 24.3 (16:00) 6.7 (00:00) 15.5 8.06 (17:30) 5 (18:10) 0 0 0 0 0
12-09-2019 23.6 (16:20) 7.8 (00:00) 15.7 12.22 (16:10) 7.5 (13:30) 0 0 0 0 0
10-09-2019 15.5 (15:00) 7.8 (09:10) 11.7 14.72 (18:10) 7.78 (18:10) 1.6 0 0 1.6 0
05-09-2019 22.1 (16:40) 7.8 (00:00) 15 7.78 (15:40) 4.72 (19:00) 0 0 0 0 0
03-09-2019 27.6 (15:20) 8.6 (00:00) 18.1 10.56 (15:10) 4.44 (15:50) 0 0 0 0 0
09-09-2019 25.9 (16:30) 8.7 (05:00) 17.3 12.5 (16:30) 6.67 (15:20) 0 0 0 0 0
18-09-2019 24.3 (17:50) 9 (00:00) 16.6 7.22 (02:40) 3.89 (02:50) 0 0 0 0 0
11-09-2019 17 (14:40) 9.2 (00:00) 13.1 14.17 (08:20) 8.33 (17:30) 0 0 0 0 0
19-09-2019 25.1 (13:10) 9.4 (00:00) 17.3 10.83 (20:40) 6.39 (20:10) 2 0 0 1 1
04-09-2019 29.1 (15:20) 9.8 (00:00) 19.5 8.89 (18:50) 5 (18:50) 0 0 0 0 0
15-09-2019 23.7 (17:00) 10.2 (00:00) 17 11.11 (16:10) 6.39 (17:10) 0 0 0 0 0
22-08-2019 28.3 (18:20) 10.4 (00:00) 19.3 6.11 (16:20) 3.89 (16:20) 0 0 0 0 0
14-09-2019 23.9 (16:40) 10.6 (00:00) 17.3 10.83 (14:30) 6.39 (21:10) 0.2 0 0.2 0 0
28-08-2019 30 (18:30) 11.2 (00:00) 20.6 6.67 (14:40) 3.89 (14:40) 0 0 0 0 0
24-08-2019 31.3 (18:10) 11.6 (00:00) 21.4 12.5 (14:40) 4.72 (20:20) 0 0 0 0 0
16-09-2019 22.8 (16:30) 11.8 (00:00) 17.3 5 (19:20) 3.61 (19:20) 1.6 0 0 1.6 0
21-08-2019 24.9 (14:10) 11.9 (00:00) 18.4 10 (21:10) 6.94 (21:00) 28.2 0 0 19 9.2
26-08-2019 26.4 (17:10) 12 (00:00) 19.2 11.11 (18:20) 6.67 (18:50) 0.2 0 0 0.2 0
02-09-2019 24.6 (17:30) 12 (00:00) 18.3 7.5 (17:10) 4.17 (01:50) 0 0 0 0 0
23-08-2019 29.6 (18:00) 12.1 (00:00) 20.9 7.78 (21:30) 5 (21:30) 0 0 0 0 0
27-08-2019 23.8 (13:10) 12.1 (00:00) 17.9 10.56 (00:40) 5.83 (00:50) 4.6 4 0 0.6 0
25-08-2019 29.4 (17:30) 12.2 (00:00) 20.8 10.83 (16:10) 5.83 (13:40) 0 0 0 0 0
13-09-2019 18.4 (18:20) 12.6 (00:00) 15.5 11.11 (13:20) 8.06 (19:40) 4.2 0 1 1.2 2
29-08-2019 30.3 (17:50) 13.1 (00:00) 21.7 8.33 (23:30) 5.28 (18:30) 0 0 0 0 0
31-08-2019 31.6 (16:50) 13.1 (00:00) 22.4 10 (17:30) 6.67 (17:30) 0 0 0 0 0
01-09-2019 29.7 (12:50) 14.4 (00:00) 22.1 10 (21:10) 6.94 (21:10) 3.4 0 0 0.4 3
30-08-2019 31.2 (16:00) 15.6 (00:00) 23.4 11.11 (19:50) 6.94 (16:50) 0 0 0 0 0

Gráficas

Temp. máximas Temp. mínimas Temp. medias Precipitaciones Rachas de viento máximas Velocidades máximas media en intervalos de 10 minutos

Datos horarios

Fecha y hora oficial Temperatura (ºC) Velocidad del viento (km/h) Dirección del viento Racha (km/h) Dirección de racha Precipitación (mm) Presión (hPa) Tendencia (hPa) Humedad (%)
2019-09-19 23:00:00 14.4 2 Oeste 18 Norte 0.2 -- -- 92
2019-09-19 22:00:00 15.3 0 Calma 16 Sur 0.2 -- -- 88
2019-09-19 21:00:00 16.4 14 Sudoeste 39 Sudoeste 0.6 -- -- 74
2019-09-19 20:00:00 18.5 21 Sudoeste 35 Sudoeste 0 -- -- 62
2019-09-19 19:00:00 22.5 4 Sudeste 21 Este 0 -- -- 50
2019-09-19 18:00:00 22.4 12 Este 17 Este 0 -- -- 50
2019-09-19 17:00:00 22.5 8 Nordeste 23 Nordeste 1 -- -- 60
2019-09-19 16:00:00 24.2 5 Sudeste 19 Sur 0 -- -- 45
2019-09-19 15:00:00 24.6 11 Sudeste 24 Sudeste 0 -- -- 43
2019-09-19 14:00:00 22.8 4 Este 13 Sudeste 0 -- -- 45
2019-09-19 13:00:00 24.8 4 Sudeste 15 Este 0 -- -- 44
2019-09-19 12:00:00 21.8 10 Este 15 Sudeste 0 -- -- 60
2019-09-19 11:00:00 19.9 5 Sudeste 8 Sudeste 0 -- -- 65
2019-09-19 10:00:00 15 3 Oeste 6 Sudoeste 0 -- -- 86
2019-09-19 09:00:00 11.3 0 Calma 8 Oeste 0 -- -- 93
2019-09-19 08:00:00 9.9 6 Oeste 10 Oeste 0 -- -- 95
2019-09-19 07:00:00 9.7 7 Oeste 10 Oeste 0 -- -- 94
2019-09-19 06:00:00 9.5 6 Oeste 8 Oeste 0 -- -- 94
2019-09-19 05:00:00 9.9 2 Oeste 10 Sudoeste 0 -- -- 93
2019-09-19 04:00:00 10.8 5 Oeste 9 Oeste 0 -- -- 92
2019-09-19 03:00:00 10.6 4 Oeste 10 Oeste 0 -- -- 92
2019-09-19 02:00:00 11.8 6 Oeste 13 Oeste 0 -- -- 89
2019-09-19 01:00:00 12.6 6 Oeste 11 Oeste 0 -- -- 86
2019-09-19 00:00:00 12.4 4 Oeste 9 Oeste 0 -- -- 87
2019-09-18 23:00:00 13 5 Oeste 9 Oeste 0 -- -- 85
2019-09-18 22:00:00 13.7 4 Oeste 6 Oeste 0 -- -- 82
2019-09-18 21:00:00 16.1 3 Oeste 6 Oeste 0 -- -- 73
2019-09-18 20:00:00 18.7 2 Oeste 6 Norte 0 -- -- 65
2019-09-18 19:00:00 23 5 Norte 12 Norte 0 -- -- 47
2019-09-18 18:00:00 23.2 6 Norte 16 Nordeste 0 -- -- 47
2019-09-18 17:00:00 23.1 7 Nordeste 23 Nordeste 0 -- -- 48
2019-09-18 16:00:00 23.2 8 Nordeste 20 Nordeste 0 -- -- 48
2019-09-18 15:00:00 22 11 Norte 22 Norte 0 -- -- 55
2019-09-18 14:00:00 21.9 7 Noroeste 15 Oeste 0 -- -- 47
2019-09-18 13:00:00 22 5 Norte 13 Sudoeste 0 -- -- 45
2019-09-18 12:00:00 18.9 5 Sudeste 9 Sudeste 0 -- -- 68
2019-09-18 11:00:00 19.4 4 Oeste 8 Oeste 0 -- -- 53
2019-09-18 10:00:00 17.9 0 Calma 6 Nordeste 0 -- -- 68
2019-09-18 09:00:00 10.9 5 Oeste 10 Sudoeste 0 -- -- 87
2019-09-18 08:00:00 10.5 9 Oeste 14 Oeste 0 -- -- 86
2019-09-18 07:00:00 9.1 5 Sudoeste 8 Oeste 0 -- -- 95
2019-09-18 06:00:00 9.6 0 Calma 7 Este 0 -- -- 92
2019-09-18 05:00:00 10.9 5 Este 11 Este 0 -- -- 87
2019-09-18 04:00:00 12.9 7 Oeste 23 Oeste 0 -- -- 76
2019-09-18 03:00:00 13.5 13 Oeste 26 Oeste 0 -- -- 76
2019-09-18 02:00:00 12.9 3 Oeste 13 Oeste 0 -- -- 84
2019-09-18 01:00:00 13.2 7 Oeste 17 Sur 0 -- -- 85
2019-09-18 00:00:00 14.3 10 Sur 36 Este 0.4 -- -- 82
2019-09-17 23:00:00 14.7 9 Norte 31 Sudoeste 0.8 -- -- 80
2019-09-17 22:00:00 15.4 27 Sudoeste 47 Sudoeste 6 -- -- 73
2019-09-17 21:00:00 -- -- -- -- -- -- -- -- --
2019-09-15 18:00:00 22.4 16 Sudeste 35 Este 0 -- -- 54
2019-09-15 17:00:00 23.7 19 Sudeste 40 Sudeste 0 -- -- 55
2019-09-15 16:00:00 21.6 18 Sudeste 35 Sudeste 0 -- -- 59
2019-09-15 15:00:00 21.2 19 Sudeste 31 Sudeste 0 -- -- 60
2019-09-15 14:00:00 20.3 12 Sudeste 22 Sudeste 0 -- -- 60
2019-09-15 13:00:00 18.2 5 Sudeste 12 Sudeste 0 -- -- 61
2019-09-15 12:00:00 19 4 Nordeste 12 Nordeste 0 -- -- 56
2019-09-15 11:00:00 17.8 2 Nordeste 5 Este 0 -- -- 59
2019-09-15 10:00:00 16.4 2 Oeste 5 Sur 0 -- -- 59
2019-09-15 09:00:00 13.8 3 Nordeste 10 Sudeste 0 -- -- 69
2019-09-15 08:00:00 12.6 6 Sudeste 13 Sudeste 0 -- -- 72
2019-09-15 07:00:00 11.8 5 Nordeste 9 Norte 0 -- -- 79
2019-09-15 06:00:00 11.2 4 Oeste 9 Sudeste 0 -- -- 85
2019-09-15 05:00:00 11.3 3 Este 6 Este 0 -- -- 85
2019-09-15 04:00:00 12.6 7 Este 10 Sudeste 0 -- -- 80
2019-09-15 03:00:00 12.2 3 Sur 13 Sudeste 0 -- -- 79
2019-09-15 02:00:00 13.7 9 Este 19 Este 0 -- -- 72
2019-09-15 01:00:00 14.5 5 Sur 14 Este 0 -- -- 68
2019-09-15 00:00:00 14.3 4 Sudeste 12 Sudeste 0 -- -- 71
2019-09-14 23:00:00 14.5 5 Sur 21 Este 0 -- -- 64
2019-09-14 22:00:00 16.2 13 Este 30 Este 0 -- -- 57
2019-09-14 21:00:00 17.5 17 Este 35 Este 0 -- -- 56
2019-09-14 20:00:00 19.8 22 Este 31 Este 0 -- -- 52
2019-09-14 19:00:00 20.9 11 Sudeste 30 Este 0 -- -- 52
2019-09-14 18:00:00 22 21 Sudeste 33 Sudeste 0 -- -- 50
2019-09-14 17:00:00 23.5 9 Este 23 Sudeste 0 -- -- 49
2019-09-14 16:00:00 20.7 8 Oeste 30 Oeste 0 -- -- 58
2019-09-14 15:00:00 21 9 Sudoeste 39 Este 0 -- -- 52
2019-09-14 14:00:00 20.9 18 Este 30 Este 0 -- -- 54
2019-09-14 13:00:00 20.1 17 Este 28 Este 0 -- -- 55
2019-09-14 12:00:00 18.4 14 Este 27 Este 0 -- -- 64
2019-09-14 11:00:00 14.3 10 Este 23 Sudeste 0 -- -- 79
2019-09-14 10:00:00 13.6 14 Sudeste 28 Este 0 -- -- 77
2019-09-14 09:00:00 12.4 10 Sudeste 20 Sudeste 0 -- -- 90
2019-09-14 08:00:00 10.8 2 Nordeste 13 Sudeste 0.2 -- -- 97
2019-09-14 07:00:00 11.1 9 Sudeste 13 Sudeste 0 -- -- 96
2019-09-14 06:00:00 10.9 2 Sudeste 13 Sudeste 0 -- -- 97
2019-09-14 05:00:00 10.8 7 Este 13 Sudeste 0 -- -- 97
2019-09-14 04:00:00 10.8 8 Este 10 Sudeste 0 -- -- 97
2019-09-14 03:00:00 11.7 4 Sudeste 19 Este 0 -- -- 95
2019-09-14 02:00:00 11.3 0 Calma 5 Sudoeste 0 -- -- 93
2019-09-14 01:00:00 12.7 5 Sudoeste 9 Sudeste 0 -- -- 92
2019-09-14 00:00:00 13.7 8 Sudeste 17 Sudeste 1.4 -- -- 91
2019-09-13 23:00:00 13.9 5 Sudeste 19 Este 0.6 -- -- 87
2019-09-13 22:00:00 15.4 10 Este 18 Este 0 -- -- 78
2019-09-13 21:00:00 15.9 16 Este 31 Este 0 -- -- 75
2019-09-13 20:00:00 16.6 20 Este 38 Este 0 -- -- 73
2019-09-13 19:00:00 18.2 16 Este 30 Este 0 -- -- 69
2019-09-13 18:00:00 18.1 21 Este 35 Este 0.2 -- -- 69
2019-09-13 17:00:00 16.5 16 Este 33 Este 0 -- -- 77
2019-09-13 16:00:00 15.3 13 Este 28 Este 0 -- -- 82
2019-09-13 15:00:00 14.8 18 Este 32 Este 0.2 -- -- 82
2019-09-13 14:00:00 13.1 23 Este 40 Este 0.4 -- -- 83
2019-09-13 13:00:00 14.9 17 Nordeste 39 Este 0.4 -- -- 68
2019-09-13 12:00:00 13.6 13 Este 37 Este 1 -- -- 72
2019-09-13 11:00:00 15 24 Nordeste 38 Este 0 -- -- 64
2019-09-13 10:00:00 14.5 12 Nordeste 18 Nordeste 0 -- -- 62
2019-09-13 09:00:00 14.2 11 Nordeste 18 Nordeste 0 -- -- 57
2019-09-13 08:00:00 12.7 12 Nordeste 21 Nordeste 0 -- -- 63
2019-09-13 07:00:00 13.3 13 Nordeste 27 Este 0 -- -- 58
2019-09-13 06:00:00 14.3 17 Nordeste 26 Este 0 -- -- 53
2019-09-13 05:00:00 14.2 14 Este 26 Este 0 -- -- 56
2019-09-13 04:00:00 13.8 13 Este 28 Este 0 -- -- 61
2019-09-13 03:00:00 13.4 10 Este 21 Nordeste 0 -- -- 68
2019-09-13 02:00:00 13.7 10 Este 15 Nordeste 0 -- -- 67
2019-09-13 01:00:00 13.4 8 Sudeste 19 Este 0 -- -- 67
2019-09-13 00:00:00 13.9 7 Este 18 Este 0 -- -- 65
2019-09-12 23:00:00 16.5 12 Este 19 Este 0 -- -- 57
2019-09-12 22:00:00 17.4 9 Nordeste 23 Este 0 -- -- 54
2019-09-12 21:00:00 18.2 15 Este 26 Este 0 -- -- 52
2019-09-12 20:00:00 19.9 15 Nordeste 28 Nordeste 0 -- -- 48
2019-09-12 19:00:00 21.6 15 Nordeste 28 Este 0 -- -- 45
2019-09-12 18:00:00 22.5 17 Nordeste 40 Sudeste 0 -- -- 44
2019-09-12 17:00:00 22.2 17 Este 44 Este 0 -- -- 44
2019-09-12 16:00:00 22.8 18 Este 41 Este 0 -- -- 43
2019-09-12 15:00:00 22 22 Este 33 Este 0 -- -- 46
2019-09-12 14:00:00 20.5 22 Este 39 Este 0 -- -- 48
2019-09-12 13:00:00 19.9 22 Este 36 Este 0 -- -- 51
2019-09-12 12:00:00 18.2 20 Este 31 Este 0 -- -- 57
2019-09-12 11:00:00 14.5 11 Este 27 Nordeste 0 -- -- 66
2019-09-12 10:00:00 13.1 15 Nordeste 26 Nordeste 0 -- -- 71
2019-09-12 09:00:00 11.2 6 Nordeste 17 Nordeste 0 -- -- 78
2019-09-12 08:00:00 9.1 10 Nordeste 18 Nordeste 0 -- -- 85
2019-09-12 07:00:00 8.4 6 Nordeste 15 Norte 0 -- -- 88
2019-09-12 06:00:00 8.3 5 Este 14 Nordeste 0 -- -- 85
2019-09-12 05:00:00 8.3 4 Norte 19 Nordeste 0 -- -- 84
2019-09-12 04:00:00 8.3 3 Sudeste 7 Nordeste 0 -- -- 84
2019-09-12 03:00:00 9.2 7 Nordeste 16 Este 0 -- -- 80
2019-09-12 02:00:00 9.8 3 Sudeste 16 Este 0 -- -- 76
2019-09-12 01:00:00 10.7 7 Este 14 Este 0 -- -- 72
2019-09-12 00:00:00 11.4 10 Este 17 Nordeste 0 -- -- 69
2019-09-11 23:00:00 13 11 Nordeste 28 Nordeste 0 -- -- 62
2019-09-11 22:00:00 14.2 22 Nordeste 33 Nordeste 0 -- -- 56
2019-09-11 21:00:00 14.8 20 Nordeste 31 Nordeste 0 -- -- 53
2019-09-11 20:00:00 15 20 Nordeste 29 Nordeste 0 -- -- 52
2019-09-11 19:00:00 15 21 Nordeste 34 Nordeste 0 -- -- 55
2019-09-11 18:00:00 15.9 20 Nordeste 46 Nordeste 0 -- -- 48
2019-09-11 17:00:00 16.4 23 Nordeste 41 Nordeste 0 -- -- 48
2019-09-11 16:00:00 16 27 Nordeste 42 Nordeste 0 -- -- 46
2019-09-11 15:00:00 16.3 24 Nordeste 43 Nordeste 0 -- -- 46
2019-09-11 14:00:00 14.7 19 Nordeste 33 Nordeste 0 -- -- 49
2019-09-11 13:00:00 13.8 14 Nordeste 35 Nordeste 0 -- -- 53
2019-09-11 12:00:00 13.3 19 Nordeste 44 Norte 0 -- -- 55
2019-09-11 11:00:00 12.6 24 Norte 42 Norte 0 -- -- 58
2019-09-11 10:00:00 11.6 24 Norte 43 Norte 0 -- -- 65
2019-09-11 09:00:00 10.5 23 Norte 51 Norte 0 -- -- 72
2019-09-11 08:00:00 9.3 19 Norte 39 Norte 0 -- -- 80
2019-09-11 07:00:00 9.3 24 Norte 44 Norte 0 -- -- 81
2019-09-11 06:00:00 9.6 20 Norte 40 Norte 0 -- -- 78
2019-09-11 05:00:00 9.6 17 Norte 39 Norte 0 -- -- 76
2019-09-11 04:00:00 9.3 22 Norte 40 Noroeste 0 -- -- 76
2019-09-11 03:00:00 9.5 16 Norte 32 Norte 0 -- -- 77
2019-09-11 02:00:00 9.3 15 Norte 32 Norte 0 -- -- 76
2019-09-11 01:00:00 9.3 14 Norte 32 Norte 0 -- -- 74
2019-09-11 00:00:00 9.4 14 Norte 40 Norte 0 -- -- 74
2019-09-10 23:00:00 9.8 13 Norte 37 Norte 0 -- -- 71
2019-09-10 22:00:00 9.9 19 Norte 39 Norte 0 -- -- 68
2019-09-10 21:00:00 9.9 17 Noroeste 39 Noroeste 0 -- -- 70
2019-09-10 20:00:00 10.4 18 Noroeste 44 Noroeste 0 -- -- 67
2019-09-10 19:00:00 10.5 23 Noroeste 53 Noroeste 0 -- -- 67
2019-09-10 18:00:00 12.3 14 Noroeste 34 Noroeste 0.6 -- -- 61
2019-09-10 17:00:00 10.5 13 Noroeste 37 Noroeste 1 -- -- 75
2019-09-10 16:00:00 10.8 27 Noroeste 53 Noroeste 0 -- -- 70
2019-09-10 15:00:00 15.5 17 Noroeste 45 Norte 0 -- -- 41
2019-09-10 14:00:00 12.1 19 Noroeste 41 Noroeste 0 -- -- 53
2019-09-10 13:00:00 14.1 20 Noroeste 40 Norte 0 -- -- 46
2019-09-10 12:00:00 12.8 19 Noroeste 42 Norte 0 -- -- 50
2019-09-10 11:00:00 11.5 15 Noroeste 37 Norte 0 -- -- 55
2019-09-10 10:00:00 9.3 18 Norte 38 Norte 0 -- -- 64
2019-09-10 09:00:00 7.9 17 Noroeste 31 Norte 0 -- -- 76
2019-09-10 08:00:00 9.4 15 Nordeste 27 Nordeste 0 -- -- 73
2019-09-10 07:00:00 9.9 4 Norte 10 Nordeste 0 -- -- 79
2019-09-10 06:00:00 8.8 0 Calma 9 Nordeste 0 -- -- 81
2019-09-10 05:00:00 9.9 3 Nordeste 8 Nordeste 0 -- -- 74
2019-09-10 04:00:00 11.4 5 Nordeste 10 Nordeste 0 -- -- 69
2019-09-10 03:00:00 13.7 6 Norte 10 Noroeste 0 -- -- 45
2019-09-10 02:00:00 12 2 Oeste 5 Nordeste 0 -- -- 42
2019-09-10 01:00:00 13.2 0 Calma 13 Oeste 0 -- -- 38
2019-09-10 00:00:00 15.2 11 Oeste 15 Noroeste 0 -- -- 31
2019-09-09 23:00:00 17.4 6 Noroeste 14 Oeste 0 -- -- 26
2019-09-09 22:00:00 18 3 Noroeste 10 Sudoeste 0 -- -- 24
2019-09-09 21:00:00 19.8 8 Oeste 18 Oeste 0 -- -- 23
2019-09-09 20:00:00 22.1 10 Oeste 31 Oeste 0 -- -- 20
2019-09-09 19:00:00 23.2 17 Oeste 36 Oeste 0 -- -- 24
2019-09-09 18:00:00 24.6 23 Oeste 41 Oeste 0 -- -- 27
2019-09-09 17:00:00 25.7 19 Oeste 45 Oeste 0 -- -- 27
2019-09-09 16:00:00 25.6 21 Oeste 41 Oeste 0 -- -- 26
2019-09-09 15:00:00 25.3 22 Oeste 39 Oeste 0 -- -- 29
2019-09-09 14:00:00 24.5 21 Oeste 37 Oeste 0 -- -- 30
2019-09-09 13:00:00 23.7 14 Oeste 26 Oeste 0 -- -- 33
2019-09-09 12:00:00 22.5 14 Oeste 26 Oeste 0 -- -- 32
2019-09-09 11:00:00 21.3 11 Oeste 21 Oeste 0 -- -- 40
2019-09-09 10:00:00 19.6 4 Oeste 18 Oeste 0 -- -- 55
2019-09-09 09:00:00 14.9 5 Oeste 10 Oeste 0 -- -- 71
2019-09-09 08:00:00 8.7 0 Calma 11 Oeste 0 -- -- 88
2019-09-09 07:00:00 9.9 6 Oeste 10 Sudoeste 0 -- -- 87
2019-09-09 06:00:00 10.1 6 Oeste 10 Oeste 0 -- -- 86
2019-09-09 05:00:00 8.7 5 Oeste 9 Oeste 0 -- -- 88
2019-09-09 04:00:00 8.9 3 Oeste 7 Oeste 0 -- -- 87
2019-09-09 03:00:00 9.2 3 Oeste 6 Oeste 0 -- -- 85
2019-09-09 02:00:00 9.7 3 Sudoeste 6 Oeste 0 -- -- 81
2019-09-09 01:00:00 10.4 4 Oeste 5 Sudoeste 0 -- -- 77
2019-09-09 00:00:00 11.2 5 Oeste 6 Oeste 0 -- -- 75
2019-09-08 23:00:00 13.2 2 Nordeste 10 Este 0 -- -- 67
2019-09-08 22:00:00 14.7 4 Nordeste 10 Este 0 -- -- 63
2019-09-08 21:00:00 16.3 0 Calma 17 Nordeste 0 -- -- 57
2019-09-08 20:00:00 19.9 12 Nordeste 23 Este 0 -- -- 48
2019-09-08 19:00:00 22.6 9 Nordeste 29 Este 0 -- -- 41
2019-09-08 18:00:00 23.5 17 Nordeste 29 Nordeste 0 -- -- 38
2019-09-08 17:00:00 24.2 13 Nordeste 27 Nordeste 0 -- -- 36
2019-09-08 16:00:00 24.3 13 Nordeste 27 Norte 0 -- -- 36
2019-09-08 15:00:00 22.6 10 Norte 20 Nordeste 0 -- -- 41
2019-09-08 14:00:00 22.4 5 Nordeste 15 Nordeste 0 -- -- 44
2019-09-08 13:00:00 22 8 Este 17 Sudeste 0 -- -- 43
2019-09-08 12:00:00 20.6 6 Nordeste 14 Nordeste 0 -- -- 44
2019-09-08 11:00:00 17.4 5 Norte 13 Nordeste 0 -- -- 50
2019-09-08 10:00:00 16.7 5 Nordeste 12 Nordeste 0 -- -- 54
2019-09-08 09:00:00 11.9 0 Calma 4 Nordeste 0 -- -- 70
2019-09-08 08:00:00 7 0 Calma 5 Oeste 0 -- -- 83
2019-09-08 07:00:00 6.8 0 Calma 6 Oeste 0 -- -- 81
2019-09-08 06:00:00 7.4 0 Calma 5 Oeste 0 -- -- 79
2019-09-08 05:00:00 7.2 0 Calma 8 Oeste 0 -- -- 78
2019-09-08 04:00:00 8.1 0 Calma 2 Nordeste 0 -- -- 74
2019-09-08 03:00:00 9.8 0 Calma 7 Nordeste 0 -- -- 70
2019-09-08 02:00:00 11 4 Sudeste 14 Sudeste 0 -- -- 64
2019-09-08 01:00:00 11.5 7 Sudeste 13 Sudeste 0 -- -- 62
2019-09-08 00:00:00 11.9 8 Sudeste 14 Nordeste 0 -- -- 56
2019-09-07 23:00:00 13.7 11 Este 17 Este 0 -- -- 48
2019-09-07 22:00:00 14.3 3 Nordeste 21 Este 0 -- -- 48
2019-09-07 21:00:00 15.7 9 Este 24 Nordeste 0 -- -- 44
2019-09-07 20:00:00 18.3 13 Nordeste 24 Norte 0 -- -- 42
2019-09-07 19:00:00 20.9 16 Nordeste 26 Nordeste 0 -- -- 40
2019-09-07 18:00:00 23.1 11 Nordeste 22 Nordeste 0 -- -- 39
2019-09-07 17:00:00 23.8 7 Nordeste 23 Nordeste 0 -- -- 39
2019-09-07 16:00:00 22.9 8 Sudeste 22 Nordeste 0 -- -- 42
2019-09-07 15:00:00 22 7 Este 21 Nordeste 0 -- -- 43
2019-09-07 14:00:00 20.6 10 Nordeste 25 Norte 0 -- -- 45
2019-09-07 13:00:00 19.5 11 Este 18 Este 0 -- -- 46
2019-09-07 12:00:00 17.9 10 Este 17 Este 0 -- -- 47
2019-09-07 11:00:00 14.5 9 Sudeste 16 Este 0 -- -- 56
2019-09-07 10:00:00 11.9 9 Sudeste 13 Sudeste 0 -- -- 63
2019-09-07 09:00:00 11.1 3 Sudeste 7 Este 0 -- -- 69
2019-09-07 08:00:00 7.5 2 Sudeste 9 Sudeste 0 -- -- 82
2019-09-07 07:00:00 8.1 8 Sudeste 13 Sudeste 0 -- -- 77
2019-09-07 06:00:00 8.1 8 Sudeste 12 Este 0 -- -- 76
2019-09-07 05:00:00 6.4 6 Este 10 Este 0 -- -- 83
2019-09-07 04:00:00 5.8 0 Calma 6 Norte 0 -- -- 82
2019-09-07 03:00:00 6.9 2 Norte 5 Nordeste 0 -- -- 78
2019-09-07 02:00:00 7.4 0 Calma 6 Nordeste 0 -- -- 76
2019-09-07 01:00:00 7.9 0 Calma 8 Sudeste 0 -- -- 73
2019-09-07 00:00:00 9.5 8 Este 14 Sudeste 0 -- -- 68
2019-09-06 23:00:00 10.6 8 Sudeste 13 Este 0 -- -- 63
2019-09-06 22:00:00 12.2 6 Este 16 Este 0 -- -- 57
2019-09-06 21:00:00 14.1 8 Nordeste 24 Nordeste 0 -- -- 50
2019-09-06 20:00:00 17.7 15 Nordeste 27 Nordeste 0 -- -- 41
2019-09-06 19:00:00 21.4 12 Nordeste 26 Nordeste 0 -- -- 34
2019-09-06 18:00:00 22.5 9 Nordeste 18 Este 0 -- -- 34
2019-09-06 17:00:00 21.7 10 Nordeste 21 Norte 0 -- -- 36
2019-09-06 16:00:00 20.9 6 Nordeste 22 Norte 0 -- -- 39
2019-09-06 15:00:00 20.3 9 Este 17 Nordeste 0 -- -- 40
2019-09-06 14:00:00 19.2 6 Nordeste 19 Nordeste 0 -- -- 43
2019-09-06 13:00:00 17.5 6 Nordeste 15 Norte 0 -- -- 46
2019-09-06 12:00:00 15.9 8 Nordeste 16 Nordeste 0 -- -- 49
2019-09-06 11:00:00 12.3 8 Nordeste 17 Este 0 -- -- 59
2019-09-06 10:00:00 11.5 5 Este 13 Sudeste 0 -- -- 64
2019-09-06 09:00:00 8.8 0 Calma 4 Nordeste 0 -- -- 77
2019-09-06 08:00:00 3.4 3 Oeste 5 Oeste 0 -- -- 91
2019-09-06 07:00:00 3.2 0 Calma 5 Oeste 0 -- -- 91
2019-09-06 06:00:00 3.3 3 Oeste 5 Oeste 0 -- -- 90
2019-09-06 05:00:00 3.5 0 Calma 5 Oeste 0 -- -- 90
2019-09-06 04:00:00 4.2 0 Calma 8 Oeste 0 -- -- 88
2019-09-06 03:00:00 5.4 5 Oeste 8 Oeste 0 -- -- 85
2019-09-06 02:00:00 6.5 5 Oeste 9 Oeste 0 -- -- 83
2019-09-06 01:00:00 7.3 6 Oeste 12 Oeste 0 -- -- 79
2019-09-06 00:00:00 9.6 7 Oeste 12 Oeste 0 -- -- 72
2019-09-05 23:00:00 9.8 3 Noroeste 7 Oeste 0 -- -- 71
2019-09-05 22:00:00 11.5 2 Este 15 Norte 0 -- -- 63
2019-09-05 21:00:00 13.8 8 Norte 19 Norte 0 -- -- 52
2019-09-05 20:00:00 17 13 Norte 25 Norte 0 -- -- 43
2019-09-05 19:00:00 19.7 17 Norte 28 Nordeste 0 -- -- 35
2019-09-05 18:00:00 21.1 15 Nordeste 25 Nordeste 0 -- -- 35
2019-09-05 17:00:00 21.8 12 Norte 27 Norte 0 -- -- 34
2019-09-05 16:00:00 21.4 12 Norte 28 Nordeste 0 -- -- 30
2019-09-05 15:00:00 20.9 8 Norte 27 Norte 0 -- -- 35
2019-09-05 14:00:00 19.9 13 Nordeste 26 Nordeste 0 -- -- 45
2019-09-05 13:00:00 17.9 10 Norte 21 Oeste 0 -- -- 55
2019-09-05 12:00:00 16.1 8 Noroeste 20 Noroeste 0 -- -- 62
2019-09-05 11:00:00 14.3 6 Norte 15 Norte 0 -- -- 70
2019-09-05 10:00:00 12.7 9 Norte 19 Nordeste 0 -- -- 75
2019-09-05 09:00:00 12.2 4 Oeste 14 Oeste 0 -- -- 75
2019-09-05 08:00:00 8.7 6 Oeste 11 Oeste 0 -- -- 88
2019-09-05 07:00:00 7.8 0 Calma 11 Oeste 0 -- -- 89
2019-09-05 06:00:00 8.3 6 Oeste 8 Oeste 0 -- -- 88
2019-09-05 05:00:00 9.6 0 Calma 9 Este 0 -- -- 84
2019-09-05 04:00:00 10.3 5 Nordeste 13 Sudeste 0 -- -- 83
2019-09-05 03:00:00 10.5 10 Sudeste 14 Sudeste 0 -- -- 87
2019-09-05 02:00:00 10.8 8 Este 12 Este 0 -- -- 84
2019-09-05 01:00:00 11.2 2 Este 6 Norte 0 -- -- 80
2019-09-05 00:00:00 12.9 3 Norte 8 Este 0 -- -- 74
2019-09-04 23:00:00 14.6 7 Este 18 Nordeste 0 -- -- 68
2019-09-04 22:00:00 16.8 10 Nordeste 20 Este 0 -- -- 60
2019-09-04 21:00:00 19 12 Nordeste 27 Este 0 -- -- 51
2019-09-04 20:00:00 22.8 15 Nordeste 29 Norte 0 -- -- 33
2019-09-04 19:00:00 25.6 17 Nordeste 32 Nordeste 0 -- -- 29
2019-09-04 18:00:00 28.2 12 Norte 28 Norte 0 -- -- 18
2019-09-04 17:00:00 28.4 14 Norte 28 Norte 0 -- -- 22
2019-09-04 16:00:00 28.7 11 Norte 27 Noroeste 0 -- -- 25
2019-09-04 15:00:00 28.6 5 Oeste 21 Nordeste 0 -- -- 26
2019-09-04 14:00:00 27.1 6 Sudoeste 22 Oeste 0 -- -- 30
2019-09-04 13:00:00 26.4 10 Oeste 31 Este 0 -- -- 26
2019-09-04 12:00:00 26.4 9 Nordeste 19 Oeste 0 -- -- 35
2019-09-04 11:00:00 23.1 12 Oeste 21 Oeste 0 -- -- 50
2019-09-04 10:00:00 20.5 9 Oeste 14 Oeste 0 -- -- 49
2019-09-04 09:00:00 16.7 3 Oeste 13 Oeste 0 -- -- 59
2019-09-04 08:00:00 11.1 4 Oeste 10 Oeste 0 -- -- 78
2019-09-04 07:00:00 11 3 Oeste 9 Sudoeste 0 -- -- 79
2019-09-04 06:00:00 10.4 4 Oeste 12 Oeste 0 -- -- 73
2019-09-04 05:00:00 9.8 5 Oeste 8 Sudoeste 0 -- -- 70
2019-09-04 04:00:00 10.8 4 Oeste 10 Oeste 0 -- -- 63
2019-09-04 03:00:00 11.6 5 Oeste 9 Oeste 0 -- -- 62
2019-09-04 02:00:00 11.2 5 Oeste 10 Oeste 0 -- -- 60
2019-09-04 01:00:00 12 8 Oeste 9 Oeste 0 -- -- 59
2019-09-04 00:00:00 12.5 5 Oeste 8 Oeste 0 -- -- 59
2019-09-03 23:00:00 14.4 0 Calma 3 Sudoeste 0 -- -- 54
2019-09-03 22:00:00 16.2 0 Calma 4 Este 0 -- -- 51
2019-09-03 21:00:00 19.8 0 Calma 15 Nordeste 0 -- -- 40
2019-09-03 20:00:00 24.8 10 Nordeste 23 Nordeste 0 -- -- 30
2019-09-03 19:00:00 26.5 13 Nordeste 25 Norte 0 -- -- 26
2019-09-03 18:00:00 27.2 12 Norte 29 Norte 0 -- -- 28
2019-09-03 17:00:00 27 16 Norte 30 Norte 0 -- -- 28
2019-09-03 16:00:00 27.4 14 Norte 38 Norte 0 -- -- 31
2019-09-03 15:00:00 27 10 Norte 31 Norte 0 -- -- 38
2019-09-03 14:00:00 26.4 7 Noroeste 21 Nordeste 0 -- -- 43
2019-09-03 13:00:00 25 13 Oeste 23 Noroeste 0 -- -- 46
2019-09-03 12:00:00 23.4 7 Este 12 Sudeste 0 -- -- 50
2019-09-03 11:00:00 21.5 4 Este 8 Este 0 -- -- 51
2019-09-03 10:00:00 18.2 3 Este 6 Sudeste 0 -- -- 56
2019-09-03 09:00:00 13.2 0 Calma 2 Norte 0 -- -- 76
2019-09-03 08:00:00 9 0 Calma 3 Nordeste 0 -- -- 91
2019-09-03 07:00:00 8.6 0 Calma 5 Oeste 0 -- -- 91
2019-09-03 06:00:00 9.7 4 Oeste 9 Oeste 0 -- -- 87
2019-09-03 05:00:00 9.7 4 Oeste 9 Oeste 0 -- -- 85
2019-09-03 04:00:00 9.7 4 Oeste 5 Oeste 0 -- -- 85
2019-09-03 03:00:00 10.4 0 Calma 5 Oeste 0 -- -- 84
2019-09-03 02:00:00 10.6 2 Oeste 5 Oeste 0 -- -- 83
2019-09-03 01:00:00 11.3 0 Calma 4 Norte 0 -- -- 82
2019-09-03 00:00:00 12.2 0 Calma 4 Norte 0 -- -- 77
2019-09-02 23:00:00 13.3 0 Calma 5 Nordeste 0 -- -- 70
2019-09-02 22:00:00 15.4 4 Nordeste 10 Nordeste 0 -- -- 61
2019-09-02 21:00:00 17.2 3 Este 20 Nordeste 0 -- -- 55
2019-09-02 20:00:00 20.8 14 Nordeste 24 Este 0 -- -- 44
2019-09-02 19:00:00 23.1 12 Nordeste 21 Nordeste 0 -- -- 42
2019-09-02 18:00:00 24 13 Nordeste 27 Nordeste 0 -- -- 46
2019-09-02 17:00:00 24.1 10 Nordeste 20 Este 0 -- -- 50
2019-09-02 16:00:00 23.4 13 Nordeste 24 Nordeste 0 -- -- 53
2019-09-02 15:00:00 23.3 9 Nordeste 19 Este 0 -- -- 54
2019-09-02 14:00:00 21.3 9 Sudeste 18 Este 0 -- -- 57
2019-09-02 13:00:00 20.3 10 Este 19 Este 0 -- -- 60
2019-09-02 12:00:00 19.3 9 Nordeste 19 Este 0 -- -- 63
2019-09-02 11:00:00 17.6 9 Sudeste 17 Sudeste 0 -- -- 72
2019-09-02 10:00:00 16.4 8 Este 13 Este 0 -- -- 74
2019-09-02 09:00:00 14.2 6 Sudeste 9 Sudeste 0 -- -- 83
2019-09-02 08:00:00 12 4 Sudeste 10 Nordeste 0 -- -- 92
2019-09-02 07:00:00 12.9 6 Nordeste 12 Este 0 -- -- 91
2019-09-02 06:00:00 13.2 6 Este 11 Este 0 -- -- 94
2019-09-02 05:00:00 12.7 6 Sudeste 12 Sudeste 0 -- -- 94
2019-09-02 04:00:00 12.8 7 Este 13 Este 0 -- -- 94
2019-09-02 03:00:00 13 8 Este 20 Este 0 -- -- 93
2019-09-02 02:00:00 13.6 12 Este 20 Este 0 -- -- 92
2019-09-02 01:00:00 14 5 Nordeste 20 Nordeste 0 -- -- 91
2019-09-02 00:00:00 14.4 17 Nordeste 27 Nordeste 0.2 -- -- 89
2019-09-01 23:00:00 15.6 3 Nordeste 21 Sudeste 0 -- -- 93
2019-09-01 22:00:00 16.1 14 Sudeste 36 Nordeste 0.4 -- -- 89
2019-09-01 21:00:00 15.9 13 Nordeste 31 Norte 2.4 -- -- 90
2019-09-01 20:00:00 19.9 15 Nordeste 26 Nordeste 0 -- -- 64
2019-09-01 19:00:00 21.9 17 Nordeste 27 Este 0 -- -- 57
2019-09-01 18:00:00 24.1 21 Este 30 Este 0.2 -- -- 52
2019-09-01 17:00:00 22.8 10 Nordeste 16 Nordeste 0 -- -- 56
2019-09-01 16:00:00 21.4 6 Noroeste 27 Norte 0 -- -- 63
2019-09-01 15:00:00 23.1 8 Nordeste 19 Noroeste 0.2 -- -- 62
2019-09-01 14:00:00 26.2 9 Noroeste 24 Oeste 0 -- -- 38
2019-09-01 13:00:00 28.6 13 Oeste 25 Noroeste 0 -- -- 29
2019-09-01 12:00:00 27.9 14 Oeste 26 Oeste 0 -- -- 30
2019-09-01 11:00:00 26.8 15 Oeste 25 Oeste 0 -- -- 33
2019-09-01 10:00:00 24.8 6 Oeste 15 Sudoeste 0 -- -- 39
2019-09-01 09:00:00 20.2 6 Oeste 13 Oeste 0 -- -- 51
2019-09-01 08:00:00 15.4 8 Oeste 12 Oeste 0 -- -- 64
2019-09-01 07:00:00 16.2 4 Oeste 12 Oeste 0 -- -- 62
2019-09-01 06:00:00 16.2 0 Calma 9 Sudoeste 0 -- -- 59
2019-09-01 05:00:00 17.3 4 Sudoeste 20 Oeste 0 -- -- 54
2019-09-01 04:00:00 19.3 13 Oeste 18 Oeste 0 -- -- 47
2019-09-01 03:00:00 19.2 11 Oeste 17 Oeste 0 -- -- 49
2019-09-01 02:00:00 19.3 9 Oeste 15 Oeste 0 -- -- 50
2019-09-01 01:00:00 19.2 6 Oeste 12 Oeste 0 -- -- 51
2019-09-01 00:00:00 17.1 4 Oeste 11 Oeste 0 -- -- 61
2019-08-31 23:00:00 18.8 6 Oeste 11 Oeste 0 -- -- 53
2019-08-31 22:00:00 22.9 7 Norte 23 Sudoeste 0 -- -- 41
2019-08-31 21:00:00 24 12 Sudoeste 19 Sudoeste 0 -- -- 41
2019-08-31 20:00:00 25.8 11 Sur 21 Sudeste 0 -- -- 32
2019-08-31 19:00:00 28.9 11 Este 21 Este 0 -- -- 25
2019-08-31 18:00:00 29.3 14 Este 36 Este 0 -- -- 26
2019-08-31 17:00:00 31.1 9 Sudeste 24 Sudeste 0 -- -- 21
2019-08-31 16:00:00 30.4 6 Oeste 18 Oeste 0 -- -- 23
2019-08-31 15:00:00 29.9 6 Sudeste 26 Sudeste 0 -- -- 24
2019-08-31 14:00:00 29.8 7 Este 18 Este 0 -- -- 27
2019-08-31 13:00:00 28.5 9 Este 19 Este 0 -- -- 32
2019-08-31 12:00:00 27.8 8 Sudeste 15 Este 0 -- -- 34
2019-08-31 11:00:00 26.5 4 Oeste 12 Oeste 0 -- -- 32
2019-08-31 10:00:00 23.8 4 Oeste 9 Oeste 0 -- -- 39
2019-08-31 09:00:00 18.7 0 Calma 9 Oeste 0 -- -- 56
2019-08-31 08:00:00 13.5 4 Oeste 10 Oeste 0 -- -- 71
2019-08-31 07:00:00 14.1 7 Oeste 12 Oeste 0 -- -- 68
2019-08-31 06:00:00 13.7 6 Oeste 12 Oeste 0 -- -- 70
2019-08-31 05:00:00 14.1 6 Oeste 13 Oeste 0 -- -- 69
2019-08-31 04:00:00 14.8 5 Oeste 18 Oeste 0 -- -- 66
2019-08-31 03:00:00 15.3 9 Oeste 15 Oeste 0 -- -- 65
2019-08-31 02:00:00 15.8 2 Oeste 8 Oeste 0 -- -- 64
2019-08-31 01:00:00 16.9 2 Oeste 9 Sudoeste 0 -- -- 60
2019-08-31 00:00:00 17.5 3 Este 23 Sudoeste 0 -- -- 60
2019-08-30 23:00:00 19.1 11 Sudoeste 23 Oeste 0 -- -- 55
2019-08-30 22:00:00 18.6 14 Oeste 28 Sudoeste 0 -- -- 59
2019-08-30 21:00:00 20 17 Sudoeste 35 Sudoeste 0 -- -- 53
2019-08-30 20:00:00 21.2 21 Sudoeste 40 Sudoeste 0 -- -- 52
2019-08-30 19:00:00 23.9 9 Oeste 38 Oeste 0 -- -- 43
2019-08-30 18:00:00 26.4 21 Nordeste 37 Este 0 -- -- 33
2019-08-30 17:00:00 28.5 21 Este 35 Nordeste 0 -- -- 29
2019-08-30 16:00:00 31.2 10 Nordeste 26 Nordeste 0 -- -- 25
2019-08-30 15:00:00 30.4 8 Sudeste 21 Este 0 -- -- 29
2019-08-30 14:00:00 29.8 10 Nordeste 18 Este 0 -- -- 29
2019-08-30 13:00:00 28.7 5 Nordeste 18 Sudeste 0 -- -- 35
2019-08-30 12:00:00 28 8 Este 17 Este 0 -- -- 37
2019-08-30 11:00:00 26.4 8 Sudeste 17 Sudeste 0 -- -- 40
2019-08-30 10:00:00 24.1 4 Sudeste 7 Sur 0 -- -- 46
2019-08-30 09:00:00 19.7 3 Sudoeste 9 Oeste 0 -- -- 62
2019-08-30 08:00:00 16 5 Oeste 12 Oeste 0 -- -- 71
2019-08-30 07:00:00 15.6 5 Oeste 8 Oeste 0 -- -- 72
2019-08-30 06:00:00 17.4 2 Noroeste 12 Sur 0 -- -- 64
2019-08-30 05:00:00 17.4 5 Oeste 10 Sur 0 -- -- 63
2019-08-30 04:00:00 18 5 Sur 16 Oeste 0 -- -- 59
2019-08-30 03:00:00 20 10 Sur 24 Sudoeste 0 -- -- 52
2019-08-30 02:00:00 19.1 9 Oeste 26 Sudoeste 0 -- -- 60
2019-08-30 01:00:00 20.6 7 Noroeste 32 Noroeste 0 -- -- 46
2019-08-30 00:00:00 18.6 13 Noroeste 30 Norte 0 -- -- 63
2019-08-29 23:00:00 20.3 6 Noroeste 22 Oeste 0 -- -- 53
2019-08-29 22:00:00 20 4 Oeste 13 Oeste 0 -- -- 54
2019-08-29 21:00:00 22.3 3 Sudoeste 10 Sudoeste 0 -- -- 47
2019-08-29 20:00:00 26.9 4 Oeste 13 Este 0 -- -- 36
2019-08-29 19:00:00 26.1 12 Este 27 Nordeste 0 -- -- 40
2019-08-29 18:00:00 28.5 6 Sudeste 12 Este 0 -- -- 31
2019-08-29 17:00:00 29.1 8 Sudeste 14 Sudeste 0 -- -- 31
2019-08-29 16:00:00 27.4 5 Sur 12 Sudeste 0 -- -- 34
2019-08-29 15:00:00 27.3 9 Sur 17 Sudoeste 0 -- -- 33
2019-08-29 14:00:00 28.7 5 Noroeste 12 Noroeste 0 -- -- 32
2019-08-29 13:00:00 27.7 4 Sudeste 15 Este 0 -- -- 41
2019-08-29 12:00:00 25.2 8 Este 13 Este 0 -- -- 48
2019-08-29 11:00:00 25.5 7 Noroeste 13 Oeste 0 -- -- 41
2019-08-29 10:00:00 23.5 4 Nordeste 6 Nordeste 0 -- -- 54
2019-08-29 09:00:00 17.2 2 Noroeste 10 Oeste 0 -- -- 75
2019-08-29 08:00:00 13.7 6 Oeste 10 Sudoeste 0 -- -- 85
2019-08-29 07:00:00 13.1 6 Oeste 13 Sudoeste 0 -- -- 85
2019-08-29 06:00:00 14 10 Oeste 13 Sudoeste 0 -- -- 83
2019-08-29 05:00:00 14.1 3 Sudoeste 9 Oeste 0 -- -- 83
2019-08-29 04:00:00 15 4 Oeste 10 Sudoeste 0 -- -- 80
2019-08-29 03:00:00 15.4 5 Oeste 9 Oeste 0 -- -- 78
2019-08-29 02:00:00 15.7 3 Oeste 9 Sudoeste 0 -- -- 78
2019-08-29 01:00:00 16 4 Oeste 6 Oeste 0 -- -- 77
2019-08-29 00:00:00 16.3 2 Nordeste 4 Nordeste 0 -- -- 74
2019-08-28 23:00:00 18.3 2 Sudoeste 9 Sudeste 0 -- -- 64
2019-08-28 22:00:00 18.3 2 Este 8 Este 0 -- -- 60
2019-08-28 21:00:00 19.8 3 Oeste 6 Norte 0 -- -- 57
2019-08-28 20:00:00 26.1 4 Norte 15 Nordeste 0 -- -- 37
2019-08-28 19:00:00 27.9 7 Norte 15 Nordeste 0 -- -- 33
2019-08-28 18:00:00 28.6 5 Noroeste 16 Sudoeste 0 -- -- 33
2019-08-28 17:00:00 28.2 7 Oeste 17 Noroeste 0 -- -- 34
2019-08-28 16:00:00 25.3 8 Noroeste 17 Noroeste 0 -- -- 38
2019-08-28 15:00:00 24.9 10 Noroeste 24 Sudoeste 0 -- -- 42
2019-08-28 14:00:00 26.5 5 Noroeste 16 Noroeste 0 -- -- 38
2019-08-28 13:00:00 23.9 6 Noroeste 18 Oeste 0 -- -- 46
2019-08-28 12:00:00 23.5 9 Oeste 17 Oeste 0 -- -- 46
2019-08-28 11:00:00 22.8 4 Sudoeste 14 Oeste 0 -- -- 49
2019-08-28 10:00:00 19.6 3 Noroeste 17 Oeste 0 -- -- 64
2019-08-28 09:00:00 16.4 0 Calma 8 Oeste 0 -- -- 80
2019-08-28 08:00:00 11.6 4 Oeste 11 Oeste 0 -- -- 93
2019-08-28 07:00:00 11.4 4 Oeste 10 Oeste 0 -- -- 92
2019-08-28 06:00:00 11.8 5 Oeste 10 Sudoeste 0 -- -- 91
2019-08-28 05:00:00 11.8 0 Calma 12 Oeste 0 -- -- 92
2019-08-28 04:00:00 12.5 8 Oeste 13 Oeste 0 -- -- 90
2019-08-28 03:00:00 12.9 5 Oeste 8 Oeste 0 -- -- 91
2019-08-28 02:00:00 12.9 3 Oeste 7 Oeste 0 -- -- 92
2019-08-28 01:00:00 13.3 0 Calma 11 Oeste 0 -- -- 91
2019-08-28 00:00:00 13.7 4 Oeste 8 Oeste 0 -- -- 91
2019-08-27 23:00:00 14.9 0 Calma 9 Sur 0 -- -- 88
2019-08-27 22:00:00 16.9 4 Oeste 12 Noroeste 0 -- -- 80
2019-08-27 21:00:00 17.4 2 Oeste 10 Sudeste 0 -- -- 77
2019-08-27 20:00:00 17.8 8 Sudeste 18 Sudeste 0 -- -- 75
2019-08-27 19:00:00 19.3 0 Calma 12 Oeste 0 -- -- 62
2019-08-27 18:00:00 17.7 9 Oeste 32 Noroeste 0.2 -- -- 67
2019-08-27 17:00:00 18.2 12 Oeste 30 Sudoeste 0 -- -- 67
2019-08-27 16:00:00 17.7 13 Sudoeste 35 Sudoeste 0.4 -- -- 70
2019-08-27 15:00:00 22.1 5 Nordeste 17 Este 0 -- -- 49
2019-08-27 14:00:00 22 10 Este 19 Sudeste 0 -- -- 51
2019-08-27 13:00:00 22.9 8 Nordeste 16 Oeste 0 -- -- 51
2019-08-27 12:00:00 20.5 6 Noroeste 21 Oeste 0 -- -- 57
2019-08-27 11:00:00 19 9 Noroeste 21 Oeste 0 -- -- 59
2019-08-27 10:00:00 17.9 2 Nordeste 14 Sudeste 0 -- -- 71
2019-08-27 09:00:00 14.9 0 Calma 8 Oeste 0 -- -- 81
2019-08-27 08:00:00 12.2 3 Oeste 18 Oeste 0 -- -- 91
2019-08-27 07:00:00 12.7 11 Sudoeste 24 Sudoeste 0 -- -- 91
2019-08-27 06:00:00 12.6 2 Sudeste 20 Este 0.2 -- -- 94
2019-08-27 05:00:00 13.2 13 Este 20 Sudeste 0.2 -- -- 91
2019-08-27 04:00:00 13.1 6 Sur 15 Sudoeste 1.4 -- -- 91
2019-08-27 03:00:00 13 7 Sudoeste 15 Sudoeste 2.2 -- -- 91
2019-08-27 02:00:00 15.3 15 Oeste 30 Oeste 0 -- -- 71
2019-08-27 01:00:00 17.2 18 Oeste 38 Oeste 0 -- -- 67
2019-08-27 00:00:00 19.2 11 Sudoeste 22 Sudoeste 0 -- -- 56
2019-08-26 23:00:00 18.5 3 Sur 27 Sudeste 0 -- -- 73
2019-08-26 22:00:00 19.5 9 Sudeste 23 Sudeste 0 -- -- 70
2019-08-26 21:00:00 20.3 8 Sudeste 28 Sur 0 -- -- 66
2019-08-26 20:00:00 22 15 Sur 39 Sudeste 0 -- -- 55
2019-08-26 19:00:00 23.7 22 Sudeste 40 Sudeste 0 -- -- 51
2019-08-26 18:00:00 26 19 Sudeste 32 Sudeste 0 -- -- 38
2019-08-26 17:00:00 25.6 19 Sudeste 30 Sudeste 0 -- -- 41
2019-08-26 16:00:00 25.7 20 Este 31 Sudeste 0 -- -- 40
2019-08-26 15:00:00 23.7 13 Este 23 Este 0.2 -- -- 50
2019-08-26 14:00:00 21.6 4 Este 17 Sudeste 0 -- -- 50
2019-08-26 13:00:00 21.5 6 Sudeste 23 Sudeste 0 -- -- 49
2019-08-26 12:00:00 22.8 15 Este 28 Sudeste 0 -- -- 50
2019-08-26 11:00:00 20.7 17 Sudeste 27 Sudeste 0 -- -- 53
2019-08-26 10:00:00 19.6 15 Sudeste 26 Sudeste 0 -- -- 57
2019-08-26 09:00:00 16.3 9 Este 17 Este 0 -- -- 68
2019-08-26 08:00:00 13.5 2 Nordeste 6 Norte 0 -- -- 76
2019-08-26 07:00:00 12.9 0 Calma 4 Sudoeste 0 -- -- 72
2019-08-26 06:00:00 12.3 4 Oeste 6 Oeste 0 -- -- 71
2019-08-26 05:00:00 13.7 3 Sudoeste 9 Sudeste 0 -- -- 64
2019-08-26 04:00:00 15.1 3 Sur 18 Sur 0 -- -- 57
2019-08-26 03:00:00 16.2 4 Sur 12 Sudeste 0 -- -- 54
2019-08-26 02:00:00 17.4 9 Sudeste 17 Sur 0 -- -- 50
2019-08-26 01:00:00 17.7 5 Sur 15 Sudeste 0 -- -- 48
2019-08-26 00:00:00 17.5 0 Calma 10 Sur 0 -- -- 51
2019-08-25 23:00:00 18.7 2 Sur 13 Sur 0 -- -- 51
2019-08-25 22:00:00 20 3 Sur 21 Sudeste 0 -- -- 50
2019-08-25 21:00:00 22.4 14 Sudeste 34 Sudeste 0 -- -- 41
2019-08-25 20:00:00 25.6 18 Sudeste 35 Sur 0 -- -- 35
2019-08-25 19:00:00 28.1 17 Sudeste 30 Sudeste 0 -- -- 29
2019-08-25 18:00:00 28.9 15 Sudeste 31 Este 0 -- -- 24
2019-08-25 17:00:00 29 17 Sudeste 39 Sudeste 0 -- -- 25
2019-08-25 16:00:00 28.5 15 Sudeste 30 Sudeste 0 -- -- 24
2019-08-25 15:00:00 28.5 15 Sudeste 32 Sudeste 0 -- -- 25
2019-08-25 14:00:00 28.4 18 Sudeste 34 Sudeste 0 -- -- 25
2019-08-25 13:00:00 28.5 11 Sudeste 22 Este 0 -- -- 22
2019-08-25 12:00:00 28.3 7 Este 15 Este 0 -- -- 29
2019-08-25 11:00:00 26 6 Sudeste 14 Sudeste 0 -- -- 36
2019-08-25 10:00:00 24.8 3 Este 5 Este 0 -- -- 34
2019-08-25 09:00:00 18.4 0 Calma 4 Oeste 0 -- -- 64
2019-08-25 08:00:00 12.7 4 Oeste 8 Oeste 0 -- -- 71
2019-08-25 07:00:00 12.6 0 Calma 4 Sudoeste 0 -- -- 75
2019-08-25 06:00:00 14.1 0 Calma 9 Sudoeste 0 -- -- 73
2019-08-25 05:00:00 13.6 0 Calma 8 Oeste 0 -- -- 82
2019-08-25 04:00:00 14.5 0 Calma 10 Sudeste 0 -- -- 79
2019-08-25 03:00:00 16.5 4 Sur 17 Sudoeste 0 -- -- 69
2019-08-25 02:00:00 15 6 Oeste 10 Oeste 0 -- -- 76
2019-08-25 01:00:00 16.2 0 Calma 7 Oeste 0 -- -- 72
2019-08-25 00:00:00 17.5 0 Calma 9 Sur 0 -- -- 66
2019-08-24 23:00:00 19.6 7 Sudeste 17 Sudeste 0 -- -- 62
2019-08-24 22:00:00 21.6 8 Sudeste 24 Este 0 -- -- 48
2019-08-24 21:00:00 24.3 14 Este 30 Este 0 -- -- 31
2019-08-24 20:00:00 28.1 11 Este 23 Este 0 -- -- 28
2019-08-24 19:00:00 29.8 10 Nordeste 19 Nordeste 0 -- -- 24
2019-08-24 18:00:00 30.3 4 Este 24 Este 0 -- -- 22
2019-08-24 17:00:00 29.5 12 Nordeste 24 Norte 0 -- -- 23
2019-08-24 16:00:00 28.9 10 Norte 24 Norte 0 -- -- 23
2019-08-24 15:00:00 28.7 9 Sudeste 45 Nordeste 0 -- -- 26
2019-08-24 14:00:00 28.5 8 Este 17 Este 0 -- -- 29
2019-08-24 13:00:00 28.5 8 Este 18 Este 0 -- -- 29
2019-08-24 12:00:00 27.2 6 Este 14 Este 0 -- -- 32
2019-08-24 11:00:00 26.3 3 Este 10 Este 0 -- -- 33
2019-08-24 10:00:00 24.4 0 Calma 6 Oeste 0 -- -- 39
2019-08-24 09:00:00 16.7 5 Oeste 10 Sudoeste 0 -- -- 63
2019-08-24 08:00:00 12.2 3 Noroeste 9 Oeste 0 -- -- 77
2019-08-24 07:00:00 12.2 6 Oeste 10 Oeste 0 -- -- 75
2019-08-24 06:00:00 13.3 8 Oeste 15 Oeste 0 -- -- 73
2019-08-24 05:00:00 13.5 12 Oeste 18 Oeste 0 -- -- 72
2019-08-24 04:00:00 13.6 5 Oeste 9 Oeste 0 -- -- 69
2019-08-24 03:00:00 14.1 6 Oeste 10 Oeste 0 -- -- 68
2019-08-24 02:00:00 14.3 0 Calma 8 Sur 0 -- -- 75
2019-08-24 01:00:00 15.8 2 Oeste 10 Sur 0 -- -- 67
2019-08-24 00:00:00 17.2 4 Sudeste 17 Sudeste 0 -- -- 66
2019-08-23 23:00:00 19 8 Sudeste 21 Este 0 -- -- 55
2019-08-23 22:00:00 21.8 14 Este 28 Este 0 -- -- 38
2019-08-23 21:00:00 23.5 17 Este 24 Nordeste 0 -- -- 35
2019-08-23 20:00:00 27.5 7 Este 18 Este 0 -- -- 25
2019-08-23 19:00:00 28.7 9 Este 20 Nordeste 0 -- -- 23
2019-08-23 18:00:00 29.6 7 Este 22 Norte 0 -- -- 25
2019-08-23 17:00:00 28.6 4 Oeste 17 Noroeste 0 -- -- 27
2019-08-23 16:00:00 27.9 12 Este 23 Este 0 -- -- 28
2019-08-23 15:00:00 27 10 Sudeste 18 Noroeste 0 -- -- 35
2019-08-23 14:00:00 27.1 5 Sudeste 17 Este 0 -- -- 34
2019-08-23 13:00:00 26.5 9 Este 15 Sudeste 0 -- -- 36
2019-08-23 12:00:00 25.2 7 Este 15 Sudeste 0 -- -- 43
2019-08-23 11:00:00 23.6 6 Este 11 Sudeste 0 -- -- 50
2019-08-23 10:00:00 21.8 4 Este 8 Sudeste 0 -- -- 55
2019-08-23 09:00:00 17.1 0 Calma 8 Sudoeste 0 -- -- 73
2019-08-23 08:00:00 12.7 5 Oeste 9 Oeste 0 -- -- 85
2019-08-23 07:00:00 13.1 3 Oeste 12 Oeste 0 -- -- 83
2019-08-23 06:00:00 12.9 5 Oeste 8 Oeste 0 -- -- 87
2019-08-23 05:00:00 12.1 4 Sudoeste 7 Sudoeste 0 -- -- 90
2019-08-23 04:00:00 12.7 0 Calma 10 Oeste 0 -- -- 87
2019-08-23 03:00:00 12.8 3 Oeste 9 Oeste 0 -- -- 85
2019-08-23 02:00:00 14 4 Oeste 9 Oeste 0 -- -- 78
2019-08-23 01:00:00 14.5 0 Calma 4 Este 0 -- -- 71
2019-08-23 00:00:00 15.7 0 Calma 9 Sudeste 0 -- -- 64
2019-08-22 23:00:00 17 2 Sur 9 Nordeste 0 -- -- 59
2019-08-22 22:00:00 17.8 3 Norte 8 Nordeste 0 -- -- 57
2019-08-22 21:00:00 20.5 6 Nordeste 19 Nordeste 0 -- -- 50
2019-08-22 20:00:00 24.7 10 Nordeste 21 Este 0 -- -- 39
2019-08-22 19:00:00 28.1 8 Este 21 Este 0 -- -- 28
2019-08-22 18:00:00 27.9 10 Nordeste 19 Nordeste 0 -- -- 22
2019-08-22 17:00:00 27.1 11 Nordeste 22 Este 0 -- -- 29
2019-08-22 16:00:00 26.5 9 Nordeste 21 Este 0 -- -- 32
2019-08-22 15:00:00 25.2 6 Norte 19 Norte 0 -- -- 42
2019-08-22 14:00:00 25.4 6 Nordeste 20 Este 0 -- -- 38
2019-08-22 13:00:00 23.7 9 Nordeste 17 Este 0 -- -- 50
2019-08-22 12:00:00 23.3 4 Sudeste 13 Este 0 -- -- 54
2019-08-22 11:00:00 21.9 6 Este 14 Sudeste 0 -- -- 61
2019-08-22 10:00:00 19.6 5 Este 11 Este 0 -- -- 66
2019-08-22 09:00:00 14.8 0 Calma 4 Oeste 0 -- -- 87
2019-08-22 08:00:00 11.2 4 Oeste 11 Oeste 0 -- -- 92
2019-08-22 07:00:00 10.5 0 Calma 12 Oeste 0 -- -- 94
2019-08-22 06:00:00 10.9 7 Oeste 10 Oeste 0 -- -- 93
2019-08-22 05:00:00 10.7 4 Oeste 8 Oeste 0 -- -- 93
2019-08-22 04:00:00 11.1 3 Oeste 7 Oeste 0 -- -- 92
2019-08-22 03:00:00 11.5 5 Oeste 10 Oeste 0 -- -- 89
2019-08-22 02:00:00 12.2 4 Oeste 11 Sudoeste 0 -- -- 86
2019-08-22 01:00:00 12 6 Oeste 9 Oeste 0 -- -- 87
2019-08-22 00:00:00 13.4 2 Oeste 5 Oeste 0 -- -- 85
2019-08-21 23:00:00 14.9 2 Nordeste 9 Sur 0 -- -- 75
2019-08-21 22:00:00 15.7 4 Este 36 Sudoeste 0 -- -- 68
2019-08-21 21:00:00 15.2 25 Sudoeste 34 Sur 0 -- -- 73
2019-08-21 20:00:00 15.4 6 Sudeste 27 Sudeste 0 -- -- 74
2019-08-21 19:00:00 13.6 16 Sur 32 Sudeste 9.2 -- -- 93
2019-08-21 18:00:00 15.7 13 Sur 21 Sudoeste 18.8 -- -- 94
2019-08-21 17:00:00 20.2 9 Sudeste 17 Este 0 -- -- 74
2019-08-21 16:00:00 20.4 9 Sudeste 22 Sudeste 0.2 -- -- 71
2019-08-21 15:00:00 21 14 Sudeste 23 Este 0 -- -- 68
2019-08-21 14:00:00 23.7 13 Este 23 Sudeste 0 -- -- 58
2019-08-21 13:00:00 21.6 11 Nordeste 24 Este 0 -- -- 65
2019-08-21 12:00:00 22.8 10 Este 18 Este 0 -- -- 62
2019-08-21 11:00:00 21 6 Sudeste 16 Sudeste 0 -- -- 67
2019-08-21 10:00:00 19.4 11 Este 18 Este 0 -- -- 70
2019-08-21 09:00:00 16.4 3 Sudeste 10 Sudeste 0 -- -- 81
2019-08-21 08:00:00 13.4 4 Este 11 Sudeste 0 -- -- 89
2019-08-21 07:00:00 12 4 Nordeste 6 Este 0 -- -- 92
2019-08-21 06:00:00 12.1 0 Calma 4 Sudeste 0 -- -- 90
2019-08-21 05:00:00 13.2 4 Sudeste 12 Este 0 -- -- 87
2019-08-21 04:00:00 13.9 9 Este 19 Este 0 -- -- 85
2019-08-21 03:00:00 15 13 Este 15 Este 0 -- -- 83
2019-08-21 02:00:00 15.5 9 Este 14 Este 0 -- -- 81
2019-08-21 01:00:00 16 11 Este 22 Este 0 -- -- 82
2019-08-21 00:00:00 16.1 12 Este 22 Este 0 -- -- 80